sensor_id;sensor_type;location;lat;lon;timestamp;pressure;altitude;pressure_sealevel;temperature;humidity
7376;BME280;3728;42.266;24.944;2023-07-24T00:02:00;99670.69;;;24.23;56.74
7376;BME280;3728;42.266;24.944;2023-07-24T00:04:33;99666.53;;;23.97;57.73
7376;BME280;3728;42.266;24.944;2023-07-24T00:07:02;99666.16;;;23.70;59.92
7376;BME280;3728;42.266;24.944;2023-07-24T00:09:29;99658.91;;;23.53;61.87
7376;BME280;3728;42.266;24.944;2023-07-24T00:11:57;99655.09;;;23.58;62.88
7376;BME280;3728;42.266;24.944;2023-07-24T00:14:25;99650.16;;;23.60;64.10
7376;BME280;3728;42.266;24.944;2023-07-24T00:16:56;99653.19;;;23.65;66.54
7376;BME280;3728;42.266;24.944;2023-07-24T00:19:24;99647.84;;;23.65;68.38
7376;BME280;3728;42.266;24.944;2023-07-24T00:21:54;99646.31;;;23.68;68.92
7376;BME280;3728;42.266;24.944;2023-07-24T00:24:22;99650.13;;;23.63;66.91
7376;BME280;3728;42.266;24.944;2023-07-24T00:26:49;99643.66;;;23.36;67.15
7376;BME280;3728;42.266;24.944;2023-07-24T00:29:17;99648.56;;;23.20;67.80
7376;BME280;3728;42.266;24.944;2023-07-24T00:31:45;99649.72;;;23.12;68.93
7376;BME280;3728;42.266;24.944;2023-07-24T00:34:12;99650.88;;;23.14;68.87
7376;BME280;3728;42.266;24.944;2023-07-24T00:36:40;99648.56;;;23.17;70.27
7376;BME280;3728;42.266;24.944;2023-07-24T00:39:07;99651.25;;;23.27;70.87
7376;BME280;3728;42.266;24.944;2023-07-24T00:41:35;99651.66;;;23.29;70.93
7376;BME280;3728;42.266;24.944;2023-07-24T00:44:03;99652.03;;;23.42;71.42
7376;BME280;3728;42.266;24.944;2023-07-24T00:46:30;99654.72;;;23.42;71.94
7376;BME280;3728;42.266;24.944;2023-07-24T00:49:00;99650.88;;;23.29;74.41
7376;BME280;3728;42.266;24.944;2023-07-24T00:51:31;99650.47;;;23.23;75.21
7376;BME280;3728;42.266;24.944;2023-07-24T00:54:03;99653.94;;;23.31;76.71
7376;BME280;3728;42.266;24.944;2023-07-24T00:56:33;99653.91;;;23.27;78.68
7376;BME280;3728;42.266;24.944;2023-07-24T00:59:01;99652.38;;;23.23;80.21
7376;BME280;3728;42.266;24.944;2023-07-24T01:01:29;99652.75;;;23.14;81.38
7376;BME280;3728;42.266;24.944;2023-07-24T01:03:57;99646.28;;;23.08;82.38
7376;BME280;3728;42.266;24.944;2023-07-24T01:06:25;99649.72;;;23.19;81.43
7376;BME280;3728;42.266;24.944;2023-07-24T01:08:54;99654.66;;;23.13;81.67
7376;BME280;3728;42.266;24.944;2023-07-24T01:11:28;99650.09;;;23.07;82.44
7376;BME280;3728;42.266;24.944;2023-07-24T01:14:24;99666.50;;;23.09;82.36
7376;BME280;3728;42.266;24.944;2023-07-24T01:16:55;99665.38;;;23.24;82.37
7376;BME280;3728;42.266;24.944;2023-07-24T01:25:18;99659.66;;;23.26;84.03
7376;BME280;3728;42.266;24.944;2023-07-24T01:27:46;99663.47;;;23.14;83.79
7376;BME280;3728;42.266;24.944;2023-07-24T01:30:17;99661.16;;;23.12;83.86
7376;BME280;3728;42.266;24.944;2023-07-24T01:32:46;99661.53;;;23.04;85.30
7376;BME280;3728;42.266;24.944;2023-07-24T01:35:15;99669.53;;;22.97;85.31
7376;BME280;3728;42.266;24.944;2023-07-24T01:37:46;99669.56;;;23.07;84.84
7376;BME280;3728;42.266;24.944;2023-07-24T01:40:15;99681.38;;;23.03;85.10
7376;BME280;3728;42.266;24.944;2023-07-24T01:42:42;99671.84;;;23.09;85.17
7376;BME280;3728;42.266;24.944;2023-07-24T01:45:11;99673.00;;;23.08;85.56
7376;BME280;3728;42.266;24.944;2023-07-24T01:47:38;99675.28;;;23.13;86.21
7376;BME280;3728;42.266;24.944;2023-07-24T01:50:06;99672.22;;;23.18;86.72
7376;BME280;3728;42.266;24.944;2023-07-24T01:52:34;99665.38;;;23.21;85.86
7376;BME280;3728;42.266;24.944;2023-07-24T01:55:02;99666.50;;;23.09;87.77
7376;BME280;3728;42.266;24.944;2023-07-24T01:57:30;99666.09;;;23.03;89.03
7376;BME280;3728;42.266;24.944;2023-07-24T01:59:57;99672.97;;;23.04;89.66
7376;BME280;3728;42.266;24.944;2023-07-24T02:02:25;99677.53;;;22.86;90.82
7376;BME280;3728;42.266;24.944;2023-07-24T02:04:52;99682.13;;;23.00;89.60
7376;BME280;3728;42.266;24.944;2023-07-24T02:07:21;99683.25;;;22.92;89.88
7376;BME280;3728;42.266;24.944;2023-07-24T02:09:49;99677.50;;;22.90;88.64
7376;BME280;3728;42.266;24.944;2023-07-24T02:12:17;99684.38;;;22.84;88.34
7376;BME280;3728;42.266;24.944;2023-07-24T02:14:44;99674.81;;;22.72;90.12
7376;BME280;3728;42.266;24.944;2023-07-24T02:17:16;99678.25;;;22.76;91.00
7376;BME280;3728;42.266;24.944;2023-07-24T02:19:44;99682.09;;;22.86;91.06
7376;BME280;3728;42.266;24.944;2023-07-24T02:22:15;99684.03;;;22.89;91.16
7376;BME280;3728;42.266;24.944;2023-07-24T02:24:42;99687.06;;;22.84;92.15
7376;BME280;3728;42.266;24.944;2023-07-24T02:27:13;99683.59;;;22.73;93.45
7376;BME280;3728;42.266;24.944;2023-07-24T02:29:52;99690.44;;;22.74;95.17
7376;BME280;3728;42.266;24.944;2023-07-24T02:32:20;99694.69;;;22.89;95.96
7376;BME280;3728;42.266;24.944;2023-07-24T02:34:52;99694.34;;;22.94;95.59
7376;BME280;3728;42.266;24.944;2023-07-24T02:37:20;99704.25;;;23.04;97.26
7376;BME280;3728;42.266;24.944;2023-07-24T02:39:47;99692.06;;;23.03;96.92
7376;BME280;3728;42.266;24.944;2023-07-24T02:42:15;99687.47;;;23.00;98.86
7376;BME280;3728;42.266;24.944;2023-07-24T02:44:43;99683.66;;;23.01;98.05
7376;BME280;3728;42.266;24.944;2023-07-24T02:47:10;99678.31;;;23.04;97.74
7376;BME280;3728;42.266;24.944;2023-07-24T02:49:38;99681.78;;;23.15;98.78
7376;BME280;3728;42.266;24.944;2023-07-24T02:52:06;99688.25;;;23.11;99.45
7376;BME280;3728;42.266;24.944;2023-07-24T02:54:33;99697.78;;;23.08;99.79
7376;BME280;3728;42.266;24.944;2023-07-24T02:57:01;99685.97;;;23.13;98.64
7376;BME280;3728;42.266;24.944;2023-07-24T02:59:29;99688.63;;;23.06;98.50
7376;BME280;3728;42.266;24.944;2023-07-24T03:01:58;99695.50;;;23.07;98.52
7376;BME280;3728;42.266;24.944;2023-07-24T03:04:25;99694.38;;;23.19;97.37
7376;BME280;3728;42.266;24.944;2023-07-24T03:06:53;99692.09;;;23.10;96.49
7376;BME280;3728;42.266;24.944;2023-07-24T03:09:20;99689.78;;;23.08;94.93
7376;BME280;3728;42.266;24.944;2023-07-24T03:11:48;99695.91;;;23.12;94.60
7376;BME280;3728;42.266;24.944;2023-07-24T03:14:16;99701.25;;;23.23;93.50
7376;BME280;3728;42.266;24.944;2023-07-24T03:16:44;99697.78;;;23.08;94.27
7376;BME280;3728;42.266;24.944;2023-07-24T03:19:11;99701.56;;;22.97;94.51
7376;BME280;3728;42.266;24.944;2023-07-24T03:21:39;99703.13;;;22.98;95.10
7376;BME280;3728;42.266;24.944;2023-07-24T03:24:06;99698.88;;;22.90;95.03
7376;BME280;3728;42.266;24.944;2023-07-24T03:26:34;99692.41;;;22.91;95.21
7376;BME280;3728;42.266;24.944;2023-07-24T03:29:02;99686.69;;;22.89;95.95
7376;BME280;3728;42.266;24.944;2023-07-24T03:31:31;99694.72;;;22.96;95.42
7376;BME280;3728;42.266;24.944;2023-07-24T03:33:59;99698.53;;;22.95;95.74
7376;BME280;3728;42.266;24.944;2023-07-24T03:36:26;99698.53;;;23.02;95.59
7376;BME280;3728;42.266;24.944;2023-07-24T03:38:57;99695.91;;;23.05;95.21
7376;BME280;3728;42.266;24.944;2023-07-24T03:41:25;99692.44;;;23.01;97.47
7376;BME280;3728;42.266;24.944;2023-07-24T03:43:53;99690.16;;;23.00;98.54
7376;BME280;3728;42.266;24.944;2023-07-24T03:46:21;99685.59;;;23.07;98.73
7376;BME280;3728;42.266;24.944;2023-07-24T03:48:49;99687.13;;;23.23;98.17
7376;BME280;3728;42.266;24.944;2023-07-24T03:51:17;99689.81;;;23.30;97.75
7376;BME280;3728;42.266;24.944;2023-07-24T03:53:44;99682.94;;;23.22;98.48
7376;BME280;3728;42.266;24.944;2023-07-24T03:56:12;99680.66;;;23.24;99.31
7376;BME280;3728;42.266;24.944;2023-07-24T03:58:40;99689.09;;;23.40;98.25
7376;BME280;3728;42.266;24.944;2023-07-24T04:01:08;99692.53;;;23.44;98.99
7376;BME280;3728;42.266;24.944;2023-07-24T04:03:40;99696.38;;;23.57;98.79
7376;BME280;3728;42.266;24.944;2023-07-24T04:06:08;99695.97;;;23.51;99.96
7376;BME280;3728;42.266;24.944;2023-07-24T04:08:37;99694.81;;;23.56;99.48
7376;BME280;3728;42.266;24.944;2023-07-24T04:11:06;99694.81;;;23.56;100.00
7376;BME280;3728;42.266;24.944;2023-07-24T04:13:37;99700.16;;;23.56;99.32
7376;BME280;3728;42.266;24.944;2023-07-24T04:16:05;99689.47;;;23.56;99.95
7376;BME280;3728;42.266;24.944;2023-07-24T04:18:38;99692.91;;;23.70;99.16
7376;BME280;3728;42.266;24.944;2023-07-24T04:21:13;99686.81;;;23.73;99.29
7376;BME280;3728;42.266;24.944;2023-07-24T04:23:41;99689.84;;;23.90;98.77
7376;BME280;3728;42.266;24.944;2023-07-24T04:26:11;99695.56;;;23.99;97.90
7376;BME280;3728;42.266;24.944;2023-07-24T04:28:39;99695.16;;;24.00;96.94
7376;BME280;3728;42.266;24.944;2023-07-24T04:31:07;99705.16;;;24.07;96.05
7376;BME280;3728;42.266;24.944;2023-07-24T04:33:34;99712.38;;;24.10;96.15
7376;BME280;3728;42.266;24.944;2023-07-24T04:36:02;99713.13;;;24.03;96.79
7376;BME280;3728;42.266;24.944;2023-07-24T04:38:30;99706.66;;;24.11;96.98
7376;BME280;3728;42.266;24.944;2023-07-24T04:41:00;99712.00;;;24.15;96.07
7376;BME280;3728;42.266;24.944;2023-07-24T04:43:29;99719.25;;;24.25;95.17
7376;BME280;3728;42.266;24.944;2023-07-24T04:45:57;99719.63;;;24.30;94.67
7376;BME280;3728;42.266;24.944;2023-07-24T04:48:24;99715.81;;;24.24;95.45
7376;BME280;3728;42.266;24.944;2023-07-24T04:50:55;99713.88;;;24.21;95.67
7376;BME280;3728;42.266;24.944;2023-07-24T04:53:23;99720.41;;;24.27;96.51
7376;BME280;3728;42.266;24.944;2023-07-24T04:55:51;99728.38;;;24.48;94.72
7376;BME280;3728;42.266;24.944;2023-07-24T04:58:19;99721.78;;;24.67;93.77
7376;BME280;3728;42.266;24.944;2023-07-24T05:00:46;99722.13;;;24.83;92.36
7376;BME280;3728;42.266;24.944;2023-07-24T05:03:14;99725.88;;;25.03;91.21
7376;BME280;3728;42.266;24.944;2023-07-24T05:05:43;99728.56;;;25.00;92.93
7376;BME280;3728;42.266;24.944;2023-07-24T05:08:16;99729.81;;;24.74;95.49
7376;BME280;3728;42.266;24.944;2023-07-24T05:10:43;99728.69;;;24.68;96.12
7376;BME280;3728;42.266;24.944;2023-07-24T05:13:11;99739.81;;;24.63;96.35
7376;BME280;3728;42.266;24.944;2023-07-24T05:15:39;99744.75;;;24.68;94.93
7376;BME280;3728;42.266;24.944;2023-07-24T05:18:07;99736.72;;;24.68;95.72
7376;BME280;3728;42.266;24.944;2023-07-24T05:20:34;99745.88;;;24.78;96.09
7376;BME280;3728;42.266;24.944;2023-07-24T05:23:02;99749.78;;;25.39;92.93
7376;BME280;3728;42.266;24.944;2023-07-24T05:25:29;99756.78;;;25.19;92.01
7376;BME280;3728;42.266;24.944;2023-07-24T05:27:57;99742.38;;;24.95;94.54
7376;BME280;3728;42.266;24.944;2023-07-24T05:30:24;99745.38;;;25.07;93.99
7376;BME280;3728;42.266;24.944;2023-07-24T05:32:52;99748.50;;;24.95;95.58
7376;BME280;3728;42.266;24.944;2023-07-24T05:35:19;99740.13;;;24.86;97.50
7376;BME280;3728;42.266;24.944;2023-07-24T05:37:47;99738.22;;;24.83;98.25
7376;BME280;3728;42.266;24.944;2023-07-24T05:40:14;99744.69;;;24.93;98.93
7376;BME280;3728;42.266;24.944;2023-07-24T05:42:42;99732.38;;;25.06;99.11
7376;BME280;3728;42.266;24.944;2023-07-24T05:45:10;99741.03;;;25.86;94.66
7376;BME280;3728;42.266;24.944;2023-07-24T05:47:37;99739.94;;;25.80;94.38
7376;BME280;3728;42.266;24.944;2023-07-24T05:50:05;99747.13;;;25.90;92.48
7376;BME280;3728;42.266;24.944;2023-07-24T05:52:34;99740.75;;;26.21;91.42
7376;BME280;3728;42.266;24.944;2023-07-24T05:55:01;99736.19;;;26.15;90.33
7376;BME280;3728;42.266;24.944;2023-07-24T05:57:30;99727.56;;;25.90;93.29
7376;BME280;3728;42.266;24.944;2023-07-24T05:59:57;99733.66;;;25.97;93.20
7376;BME280;3728;42.266;24.944;2023-07-24T06:02:25;99731.56;;;26.19;92.03
7376;BME280;3728;42.266;24.944;2023-07-24T06:04:52;99729.09;;;26.35;90.10
7376;BME280;3728;42.266;24.944;2023-07-24T06:07:20;99735.56;;;26.71;88.67
7376;BME280;3728;42.266;24.944;2023-07-24T06:09:48;99739.28;;;27.41;83.57
7376;BME280;3728;42.266;24.944;2023-07-24T06:12:16;99741.97;;;27.11;85.03
7376;BME280;3728;42.266;24.944;2023-07-24T06:14:43;99735.59;;;27.28;84.04
7376;BME280;3728;42.266;24.944;2023-07-24T06:17:11;99734.16;;;27.50;83.12
7376;BME280;3728;42.266;24.944;2023-07-24T06:19:39;99734.00;;;27.34;82.45
7376;BME280;3728;42.266;24.944;2023-07-24T06:22:07;99731.66;;;27.36;81.60
7376;BME280;3728;42.266;24.944;2023-07-24T06:24:35;99738.47;;;27.18;82.97
7376;BME280;3728;42.266;24.944;2023-07-24T06:27:02;99724.69;;;27.12;83.31
7376;BME280;3728;42.266;24.944;2023-07-24T06:29:33;99718.97;;;26.46;87.33
7376;BME280;3728;42.266;24.944;2023-07-24T06:32:00;99714.72;;;26.48;88.88
7376;BME280;3728;42.266;24.944;2023-07-24T06:34:28;99715.06;;;26.54;89.79
7376;BME280;3728;42.266;24.944;2023-07-24T06:36:56;99714.69;;;26.52;87.88
7376;BME280;3728;42.266;24.944;2023-07-24T06:39:42;99708.91;;;26.87;85.83
7376;BME280;3728;42.266;24.944;2023-07-24T06:42:12;99711.16;;;27.19;83.91
7376;BME280;3728;42.266;24.944;2023-07-24T06:44:40;99717.97;;;27.27;84.00
7376;BME280;3728;42.266;24.944;2023-07-24T06:47:07;99715.56;;;27.59;81.71
7376;BME280;3728;42.266;24.944;2023-07-24T06:49:35;99708.00;;;27.74;81.63
7376;BME280;3728;42.266;24.944;2023-07-24T06:52:05;99710.03;;;27.17;83.68
7376;BME280;3728;42.266;24.944;2023-07-24T06:54:33;99706.19;;;27.18;84.77
7376;BME280;3728;42.266;24.944;2023-07-24T06:57:00;99708.28;;;27.56;83.45
7376;BME280;3728;42.266;24.944;2023-07-24T06:59:28;99702.31;;;27.45;82.88
7376;BME280;3728;42.266;24.944;2023-07-24T07:01:56;99698.72;;;27.55;81.78
7376;BME280;3728;42.266;24.944;2023-07-24T07:04:23;99707.91;;;27.31;82.22
7376;BME280;3728;42.266;24.944;2023-07-24T07:06:51;99711.09;;;27.72;82.23
7376;BME280;3728;42.266;24.944;2023-07-24T07:09:18;99704.78;;;27.83;80.43
7376;BME280;3728;42.266;24.944;2023-07-24T07:11:46;99698.16;;;27.87;81.96
7376;BME280;3728;42.266;24.944;2023-07-24T07:14:14;99698.72;;;28.21;79.79
7376;BME280;3728;42.266;24.944;2023-07-24T07:16:41;99702.06;;;28.68;76.75
7376;BME280;3728;42.266;24.944;2023-07-24T07:19:09;99694.72;;;28.69;76.55
7376;BME280;3728;42.266;24.944;2023-07-24T07:21:37;99695.00;;;28.55;77.17
7376;BME280;3728;42.266;24.944;2023-07-24T07:24:04;99696.94;;;28.34;77.46
7376;BME280;3728;42.266;24.944;2023-07-24T07:26:35;99692.22;;;28.78;73.90
7376;BME280;3728;42.266;24.944;2023-07-24T07:29:04;99685.41;;;28.73;76.10
7376;BME280;3728;42.266;24.944;2023-07-24T07:31:31;99685.03;;;29.23;71.70
7376;BME280;3728;42.266;24.944;2023-07-24T07:33:59;99683.22;;;29.36;72.18
7376;BME280;3728;42.266;24.944;2023-07-24T07:36:27;99676.72;;;29.34;71.14
7376;BME280;3728;42.266;24.944;2023-07-24T07:38:54;99668.94;;;29.52;70.46
7376;BME280;3728;42.266;24.944;2023-07-24T07:41:22;99679.47;;;29.78;70.71
7376;BME280;3728;42.266;24.944;2023-07-24T07:43:50;99668.91;;;29.68;69.43
7376;BME280;3728;42.266;24.944;2023-07-24T07:46:17;99664.22;;;29.56;70.68
7376;BME280;3728;42.266;24.944;2023-07-24T07:48:45;99667.72;;;29.85;67.81
7376;BME280;3728;42.266;24.944;2023-07-24T07:51:15;99662.41;;;29.65;69.40
7376;BME280;3728;42.266;24.944;2023-07-24T07:53:43;99665.88;;;29.66;69.71
7376;BME280;3728;42.266;24.944;2023-07-24T07:56:11;99662.34;;;29.69;68.79
7376;BME280;3728;42.266;24.944;2023-07-24T07:58:38;99658.53;;;29.66;67.75
7376;BME280;3728;42.266;24.944;2023-07-24T08:01:06;99660.50;;;29.50;69.57
7376;BME280;3728;42.266;24.944;2023-07-24T08:03:34;99654.03;;;29.92;66.81
7376;BME280;3728;42.266;24.944;2023-07-24T08:06:02;99654.84;;;30.47;64.82
7376;BME280;3728;42.266;24.944;2023-07-24T08:08:30;99656.63;;;30.24;64.05
7376;BME280;3728;42.266;24.944;2023-07-24T08:10:58;99655.69;;;30.31;64.95
7376;BME280;3728;42.266;24.944;2023-07-24T08:13:30;99661.59;;;30.67;63.52
7376;BME280;3728;42.266;24.944;2023-07-24T08:15:57;99652.81;;;30.38;64.66
7376;BME280;3728;42.266;24.944;2023-07-24T08:18:26;99651.00;;;30.85;60.77
7376;BME280;3728;42.266;24.944;2023-07-24T08:20:53;99657.41;;;30.91;60.80
7376;BME280;3728;42.266;24.944;2023-07-24T08:23:21;99664.50;;;30.73;62.66
7376;BME280;3728;42.266;24.944;2023-07-24T08:25:56;99663.88;;;30.69;60.84
7376;BME280;3728;42.266;24.944;2023-07-24T08:28:23;99654.59;;;30.95;60.44
7376;BME280;3728;42.266;24.944;2023-07-24T08:30:57;99652.09;;;31.13;58.40
7376;BME280;3728;42.266;24.944;2023-07-24T08:33:29;99655.06;;;31.40;57.19
7376;BME280;3728;42.266;24.944;2023-07-24T08:35:59;99658.78;;;31.46;55.79
7376;BME280;3728;42.266;24.944;2023-07-24T08:38:31;99652.31;;;31.65;54.80
7376;BME280;3728;42.266;24.944;2023-07-24T08:41:07;99647.19;;;31.46;55.10
7376;BME280;3728;42.266;24.944;2023-07-24T08:43:39;99648.06;;;31.77;53.00
7376;BME280;3728;42.266;24.944;2023-07-24T08:46:09;99651.84;;;31.80;53.41
7376;BME280;3728;42.266;24.944;2023-07-24T08:48:39;99641.09;;;31.76;52.97
7376;BME280;3728;42.266;24.944;2023-07-24T08:51:10;99642.00;;;31.95;54.49
7376;BME280;3728;42.266;24.944;2023-07-24T08:53:40;99640.50;;;31.94;53.64
7376;BME280;3728;42.266;24.944;2023-07-24T08:56:11;99636.16;;;32.18;52.18
7376;BME280;3728;42.266;24.944;2023-07-24T08:58:39;99629.50;;;31.75;52.32
7376;BME280;3728;42.266;24.944;2023-07-24T09:01:09;99631.13;;;32.07;50.72
7376;BME280;3728;42.266;24.944;2023-07-24T09:03:37;99637.38;;;32.17;47.36
7376;BME280;3728;42.266;24.944;2023-07-24T09:06:05;99638.84;;;32.70;46.04
7376;BME280;3728;42.266;24.944;2023-07-24T09:08:37;99634.13;;;32.31;44.86
7376;BME280;3728;42.266;24.944;2023-07-24T09:11:08;99623.34;;;32.71;44.21
7376;BME280;3728;42.266;24.944;2023-07-24T09:13:37;99629.47;;;32.62;43.63
7376;BME280;3728;42.266;24.944;2023-07-24T09:16:08;99623.88;;;32.57;42.42
7376;BME280;3728;42.266;24.944;2023-07-24T09:18:40;99625.44;;;32.67;43.93
7376;BME280;3728;42.266;24.944;2023-07-24T09:21:10;99619.84;;;33.10;40.55
7376;BME280;3728;42.266;24.944;2023-07-24T09:23:42;99620.94;;;32.73;43.20
7376;BME280;3728;42.266;24.944;2023-07-24T09:26:10;99627.88;;;33.14;42.49
7376;BME280;3728;42.266;24.944;2023-07-24T09:28:38;99624.50;;;33.09;43.10
7376;BME280;3728;42.266;24.944;2023-07-24T09:31:05;99621.16;;;32.96;43.80
7376;BME280;3728;42.266;24.944;2023-07-24T09:33:38;99611.63;;;32.83;43.61
7376;BME280;3728;42.266;24.944;2023-07-24T09:36:08;99609.03;;;33.37;42.52
7376;BME280;3728;42.266;24.944;2023-07-24T09:38:36;99608.09;;;33.22;44.11
7376;BME280;3728;42.266;24.944;2023-07-24T09:41:07;99596.25;;;33.56;42.25
7376;BME280;3728;42.266;24.944;2023-07-24T09:43:36;99597.72;;;33.84;41.64
7376;BME280;3728;42.266;24.944;2023-07-24T09:46:08;99594.97;;;34.11;41.44
7376;BME280;3728;42.266;24.944;2023-07-24T09:48:37;99581.06;;;34.09;40.36
7376;BME280;3728;42.266;24.944;2023-07-24T09:51:12;99575.97;;;33.93;42.30
7376;BME280;3728;42.266;24.944;2023-07-24T09:56:20;99570.41;;;34.38;41.10
7376;BME280;3728;42.266;24.944;2023-07-24T09:59:05;99556.75;;;34.48;41.85
7376;BME280;3728;42.266;24.944;2023-07-24T10:01:33;99556.44;;;34.55;41.20
7376;BME280;3728;42.266;24.944;2023-07-24T10:04:01;99558.53;;;34.60;40.28
7376;BME280;3728;42.266;24.944;2023-07-24T10:06:31;99558.59;;;34.41;39.72
7376;BME280;3728;42.266;24.944;2023-07-24T10:09:00;99555.63;;;34.30;39.81
7376;BME280;3728;42.266;24.944;2023-07-24T10:11:30;99549.06;;;34.04;40.79
7376;BME280;3728;42.266;24.944;2023-07-24T10:13:59;99551.13;;;34.51;40.66
7376;BME280;3728;42.266;24.944;2023-07-24T10:16:27;99552.81;;;34.58;39.41
7376;BME280;3728;42.266;24.944;2023-07-24T10:18:55;99541.53;;;34.74;38.90
7376;BME280;3728;42.266;24.944;2023-07-24T10:21:49;99542.88;;;34.46;39.99
7376;BME280;3728;42.266;24.944;2023-07-24T10:24:20;99540.88;;;34.55;38.75
7376;BME280;3728;42.266;24.944;2023-07-24T10:27:07;99530.00;;;34.79;39.00
7376;BME280;3728;42.266;24.944;2023-07-24T10:29:35;99527.22;;;35.12;37.36
7376;BME280;3728;42.266;24.944;2023-07-24T10:32:24;99519.28;;;35.37;38.28
7376;BME280;3728;42.266;24.944;2023-07-24T10:34:59;99518.66;;;35.57;37.68
7376;BME280;3728;42.266;24.944;2023-07-24T10:37:36;99515.16;;;35.42;36.68
7376;BME280;3728;42.266;24.944;2023-07-24T10:40:07;99511.03;;;35.46;36.35
7376;BME280;3728;42.266;24.944;2023-07-24T10:43:10;99510.38;;;35.81;35.95
7376;BME280;3728;42.266;24.944;2023-07-24T10:45:50;99501.66;;;35.77;35.99
7376;BME280;3728;42.266;24.944;2023-07-24T10:48:26;99499.47;;;35.95;35.25
7376;BME280;3728;42.266;24.944;2023-07-24T10:50:54;99494.41;;;36.03;34.86
7376;BME280;3728;42.266;24.944;2023-07-24T10:53:22;99485.94;;;36.35;35.72
7376;BME280;3728;42.266;24.944;2023-07-24T10:55:51;99481.16;;;36.45;35.97
7376;BME280;3728;42.266;24.944;2023-07-24T10:58:19;99478.50;;;36.51;35.35
7376;BME280;3728;42.266;24.944;2023-07-24T11:00:46;99473.97;;;36.68;34.11
7376;BME280;3728;42.266;24.944;2023-07-24T11:03:14;99475.28;;;36.52;33.15
7376;BME280;3728;42.266;24.944;2023-07-24T11:05:45;99458.91;;;36.52;34.57
7376;BME280;3728;42.266;24.944;2023-07-24T11:10:45;99448.47;;;36.51;34.72
7376;BME280;3728;42.266;24.944;2023-07-24T11:13:17;99448.25;;;36.74;33.59
7376;BME280;3728;42.266;24.944;2023-07-24T11:15:48;99446.53;;;36.77;33.17
7376;BME280;3728;42.266;24.944;2023-07-24T11:18:18;99445.03;;;36.96;32.45
7376;BME280;3728;42.266;24.944;2023-07-24T11:21:12;99442.19;;;36.65;33.02
7376;BME280;3728;42.266;24.944;2023-07-24T11:23:53;99436.13;;;36.55;33.55
7376;BME280;3728;42.266;24.944;2023-07-24T11:26:23;99437.00;;;36.67;34.28
7376;BME280;3728;42.266;24.944;2023-07-24T11:28:52;99435.09;;;37.19;33.05
7376;BME280;3728;42.266;24.944;2023-07-24T11:31:22;99423.22;;;37.27;32.09
7376;BME280;3728;42.266;24.944;2023-07-24T11:33:50;99427.75;;;37.36;32.70
7376;BME280;3728;42.266;24.944;2023-07-24T11:36:21;99428.28;;;37.65;31.65
7376;BME280;3728;42.266;24.944;2023-07-24T11:38:49;99416.41;;;37.37;31.92
7376;BME280;3728;42.266;24.944;2023-07-24T11:41:17;99408.41;;;37.65;31.97
7376;BME280;3728;42.266;24.944;2023-07-24T11:43:50;99411.06;;;37.91;31.68
7376;BME280;3728;42.266;24.944;2023-07-24T11:46:26;99399.41;;;37.59;31.63
7376;BME280;3728;42.266;24.944;2023-07-24T11:48:56;99403.19;;;38.04;30.51
7376;BME280;3728;42.266;24.944;2023-07-24T11:51:27;99402.41;;;37.98;30.67
7376;BME280;3728;42.266;24.944;2023-07-24T11:54:06;99392.31;;;37.78;29.95
7376;BME280;3728;42.266;24.944;2023-07-24T11:56:35;99401.72;;;38.08;29.30
7376;BME280;3728;42.266;24.944;2023-07-24T11:59:12;99400.25;;;38.18;29.37
7376;BME280;3728;42.266;24.944;2023-07-24T12:01:48;99388.53;;;38.07;29.30
7376;BME280;3728;42.266;24.944;2023-07-24T12:04:17;99389.31;;;38.18;29.05
7376;BME280;3728;42.266;24.944;2023-07-24T12:06:45;99386.50;;;38.50;28.66
7376;BME280;3728;42.266;24.944;2023-07-24T12:09:15;99388.00;;;38.56;28.34
7376;BME280;3728;42.266;24.944;2023-07-24T12:12:04;99375.50;;;38.39;28.18
7376;BME280;3728;42.266;24.944;2023-07-24T12:14:35;99371.09;;;38.63;27.47
7376;BME280;3728;42.266;24.944;2023-07-24T12:17:03;99371.25;;;38.38;27.48
7376;BME280;3728;42.266;24.944;2023-07-24T12:19:37;99359.38;;;38.57;27.33
7376;BME280;3728;42.266;24.944;2023-07-24T12:22:06;99366.59;;;38.55;26.97
7376;BME280;3728;42.266;24.944;2023-07-24T12:24:35;99361.19;;;38.77;25.07
7376;BME280;3728;42.266;24.944;2023-07-24T12:27:04;99360.94;;;38.91;25.61
7376;BME280;3728;42.266;24.944;2023-07-24T12:29:31;99354.72;;;38.96;25.49
7376;BME280;3728;42.266;24.944;2023-07-24T12:31:59;99357.72;;;38.98;25.96
7376;BME280;3728;42.266;24.944;2023-07-24T12:34:26;99355.00;;;39.04;26.55
7376;BME280;3728;42.266;24.944;2023-07-24T12:36:56;99360.22;;;39.13;25.56
7376;BME280;3728;42.266;24.944;2023-07-24T12:39:27;99348.50;;;39.13;25.41
7376;BME280;3728;42.266;24.944;2023-07-24T12:41:54;99354.50;;;39.28;24.59
7376;BME280;3728;42.266;24.944;2023-07-24T12:44:22;99343.56;;;39.33;19.67
7376;BME280;3728;42.266;24.944;2023-07-24T12:47:11;99341.03;;;39.13;21.06
7376;BME280;3728;42.266;24.944;2023-07-24T12:49:39;99336.03;;;39.56;21.58
7376;BME280;3728;42.266;24.944;2023-07-24T12:52:09;99333.06;;;39.37;24.02
7376;BME280;3728;42.266;24.944;2023-07-24T12:54:39;99331.81;;;39.60;23.78
7376;BME280;3728;42.266;24.944;2023-07-24T12:57:26;99320.31;;;39.51;24.08
7376;BME280;3728;42.266;24.944;2023-07-24T12:59:53;99318.72;;;39.94;23.45
7376;BME280;3728;42.266;24.944;2023-07-24T13:02:24;99325.50;;;39.82;23.33
7376;BME280;3728;42.266;24.944;2023-07-24T13:04:52;99314.53;;;39.82;22.13
7376;BME280;3728;42.266;24.944;2023-07-24T13:07:21;99315.06;;;39.75;22.31
7376;BME280;3728;42.266;24.944;2023-07-24T13:09:59;99312.38;;;40.21;22.41
7376;BME280;3728;42.266;24.944;2023-07-24T13:12:27;99312.66;;;40.18;23.15
7376;BME280;3728;42.266;24.944;2023-07-24T13:14:56;99308.31;;;40.34;22.93
7376;BME280;3728;42.266;24.944;2023-07-24T13:17:23;99305.91;;;40.19;23.29
7376;BME280;3728;42.266;24.944;2023-07-24T13:19:51;99301.72;;;40.07;23.31
7376;BME280;3728;42.266;24.944;2023-07-24T13:22:19;99295.00;;;40.02;22.78
7376;BME280;3728;42.266;24.944;2023-07-24T13:24:46;99297.03;;;39.96;22.52
7376;BME280;3728;42.266;24.944;2023-07-24T13:27:15;99292.75;;;40.01;22.73
7376;BME280;3728;42.266;24.944;2023-07-24T13:29:44;99289.53;;;39.97;23.00
7376;BME280;3728;42.266;24.944;2023-07-24T13:32:11;99282.91;;;39.76;22.96
7376;BME280;3728;42.266;24.944;2023-07-24T13:34:39;99282.56;;;39.96;22.84